Terminal Aerodrome Forecast
Issued by NWS

Current Version | Previous Version | Text Only | Print | Product List | Glossary On
Versions: 1 2 3 4 5 6 7 8 9 10 11 12 13 14 15 16 17 18 19
000
FTUS43 KFGF 280100 AAA
TAFDVL
TAF AMD
KDVL 280128Z 2801/2824 16011KT P6SM OVC006
      TEMPO 2801/2803 5SM BR
     FM281000 17010KT 4SM BR BKN012
     FM281400 17014G22KT P6SM BKN060
     FM281700 18018G27KT P6SM BKN120
      AMD LTD TO CLD VIS AND WIND=

USA.gov is the U.S. government's official web portal to all federal, state and local government web resources and services.